sensor_id;sensor_type;location;lat;lon;timestamp;P1;durP1;ratioP1;P2;durP2;ratioP2
3677;SDS011;1855;50.934;6.958;2023-02-11T00:00:11;21.77;;;19.58;;
3677;SDS011;1855;50.934;6.958;2023-02-11T00:02:39;21.70;;;19.60;;
3677;SDS011;1855;50.934;6.958;2023-02-11T00:05:06;21.02;;;18.83;;
3677;SDS011;1855;50.934;6.958;2023-02-11T00:07:35;21.95;;;19.30;;
3677;SDS011;1855;50.934;6.958;2023-02-11T00:10:02;20.08;;;18.10;;
3677;SDS011;1855;50.934;6.958;2023-02-11T00:12:30;21.25;;;19.15;;
3677;SDS011;1855;50.934;6.958;2023-02-11T00:14:57;21.35;;;19.25;;
3677;SDS011;1855;50.934;6.958;2023-02-11T00:17:23;21.05;;;19.00;;
3677;SDS011;1855;50.934;6.958;2023-02-11T00:19:51;20.63;;;18.73;;
3677;SDS011;1855;50.934;6.958;2023-02-11T00:22:18;20.90;;;18.70;;
3677;SDS011;1855;50.934;6.958;2023-02-11T00:24:46;19.70;;;17.80;;
3677;SDS011;1855;50.934;6.958;2023-02-11T00:27:13;20.20;;;18.10;;
3677;SDS011;1855;50.934;6.958;2023-02-11T00:29:39;21.30;;;19.10;;
3677;SDS011;1855;50.934;6.958;2023-02-11T00:32:06;20.58;;;18.50;;
3677;SDS011;1855;50.934;6.958;2023-02-11T00:34:33;19.73;;;17.63;;
3677;SDS011;1855;50.934;6.958;2023-02-11T00:37:00;19.17;;;17.27;;
3677;SDS011;1855;50.934;6.958;2023-02-11T00:39:26;19.48;;;17.58;;
3677;SDS011;1855;50.934;6.958;2023-02-11T00:41:55;19.23;;;17.33;;
3677;SDS011;1855;50.934;6.958;2023-02-11T00:44:21;18.23;;;16.33;;
3677;SDS011;1855;50.934;6.958;2023-02-11T00:46:48;18.17;;;16.45;;
3677;SDS011;1855;50.934;6.958;2023-02-11T00:49:16;18.02;;;16.23;;
3677;SDS011;1855;50.934;6.958;2023-02-11T00:51:43;19.05;;;17.15;;
3677;SDS011;1855;50.934;6.958;2023-02-11T00:54:10;18.63;;;16.83;;
3677;SDS011;1855;50.934;6.958;2023-02-11T00:56:37;19.00;;;17.10;;
3677;SDS011;1855;50.934;6.958;2023-02-11T00:59:05;19.05;;;17.15;;
3677;SDS011;1855;50.934;6.958;2023-02-11T01:01:32;18.65;;;16.65;;
3677;SDS011;1855;50.934;6.958;2023-02-11T01:03:58;18.40;;;16.80;;
3677;SDS011;1855;50.934;6.958;2023-02-11T01:06:25;19.75;;;17.65;;
3677;SDS011;1855;50.934;6.958;2023-02-11T01:08:52;19.63;;;17.73;;
3677;SDS011;1855;50.934;6.958;2023-02-11T01:11:19;19.33;;;17.52;;
3677;SDS011;1855;50.934;6.958;2023-02-11T01:13:46;19.00;;;17.20;;
3677;SDS011;1855;50.934;6.958;2023-02-11T01:16:15;19.70;;;17.60;;
3677;SDS011;1855;50.934;6.958;2023-02-11T01:18:42;19.02;;;17.13;;
3677;SDS011;1855;50.934;6.958;2023-02-11T01:21:09;20.02;;;17.52;;
3677;SDS011;1855;50.934;6.958;2023-02-11T01:23:36;19.45;;;17.45;;
3677;SDS011;1855;50.934;6.958;2023-02-11T01:26:02;19.17;;;17.08;;
3677;SDS011;1855;50.934;6.958;2023-02-11T01:28:29;20.43;;;18.27;;
3677;SDS011;1855;50.934;6.958;2023-02-11T01:30:56;19.80;;;17.75;;
3677;SDS011;1855;50.934;6.958;2023-02-11T01:33:26;18.93;;;17.10;;
3677;SDS011;1855;50.934;6.958;2023-02-11T01:35:53;19.80;;;17.88;;
3677;SDS011;1855;50.934;6.958;2023-02-11T01:38:20;20.25;;;18.08;;
3677;SDS011;1855;50.934;6.958;2023-02-11T01:40:49;21.77;;;17.67;;
3677;SDS011;1855;50.934;6.958;2023-02-11T01:43:17;19.42;;;17.48;;
3677;SDS011;1855;50.934;6.958;2023-02-11T01:46:01;19.80;;;17.80;;
3677;SDS011;1855;50.934;6.958;2023-02-11T01:48:41;19.80;;;17.80;;
3677;SDS011;1855;50.934;6.958;2023-02-11T01:51:10;20.80;;;18.70;;
3677;SDS011;1855;50.934;6.958;2023-02-11T01:53:39;20.73;;;18.53;;
3677;SDS011;1855;50.934;6.958;2023-02-11T01:56:24;20.75;;;18.75;;
3677;SDS011;1855;50.934;6.958;2023-02-11T01:59:12;21.50;;;19.40;;
3677;SDS011;1855;50.934;6.958;2023-02-11T02:01:42;21.35;;;19.25;;
3677;SDS011;1855;50.934;6.958;2023-02-11T02:04:13;20.60;;;18.60;;
3677;SDS011;1855;50.934;6.958;2023-02-11T02:06:45;20.63;;;18.52;;
3677;SDS011;1855;50.934;6.958;2023-02-11T02:09:16;21.17;;;19.17;;
3677;SDS011;1855;50.934;6.958;2023-02-11T02:11:46;22.10;;;19.90;;
3677;SDS011;1855;50.934;6.958;2023-02-11T02:14:13;21.27;;;19.17;;
3677;SDS011;1855;50.934;6.958;2023-02-11T02:16:40;21.52;;;19.23;;
3677;SDS011;1855;50.934;6.958;2023-02-11T02:19:15;21.05;;;18.95;;
3677;SDS011;1855;50.934;6.958;2023-02-11T02:25:08;21.53;;;19.50;;
3677;SDS011;1855;50.934;6.958;2023-02-11T02:27:47;22.30;;;19.98;;
3677;SDS011;1855;50.934;6.958;2023-02-11T02:30:23;21.40;;;19.30;;
3677;SDS011;1855;50.934;6.958;2023-02-11T02:36:01;22.45;;;20.25;;
3677;SDS011;1855;50.934;6.958;2023-02-11T02:38:36;22.60;;;20.07;;
3677;SDS011;1855;50.934;6.958;2023-02-11T02:41:07;23.27;;;20.87;;
3677;SDS011;1855;50.934;6.958;2023-02-11T02:43:40;23.20;;;20.90;;
3677;SDS011;1855;50.934;6.958;2023-02-11T02:46:09;23.08;;;20.67;;
3677;SDS011;1855;50.934;6.958;2023-02-11T02:48:39;25.98;;;21.80;;
3677;SDS011;1855;50.934;6.958;2023-02-11T02:51:08;23.92;;;21.33;;
3677;SDS011;1855;50.934;6.958;2023-02-11T02:53:54;24.08;;;21.48;;
3677;SDS011;1855;50.934;6.958;2023-02-11T02:56:33;23.92;;;21.52;;
3677;SDS011;1855;50.934;6.958;2023-02-11T02:59:12;24.45;;;21.95;;
3677;SDS011;1855;50.934;6.958;2023-02-11T03:01:52;24.58;;;21.73;;
3677;SDS011;1855;50.934;6.958;2023-02-11T03:04:28;23.35;;;20.85;;
3677;SDS011;1855;50.934;6.958;2023-02-11T03:06:59;25.42;;;22.83;;
3677;SDS011;1855;50.934;6.958;2023-02-11T03:09:31;24.58;;;21.98;;
3677;SDS011;1855;50.934;6.958;2023-02-11T03:12:04;25.27;;;22.58;;
3677;SDS011;1855;50.934;6.958;2023-02-11T03:14:32;24.13;;;21.63;;
3677;SDS011;1855;50.934;6.958;2023-02-11T03:17:01;25.20;;;22.52;;
3677;SDS011;1855;50.934;6.958;2023-02-11T03:19:33;26.23;;;22.50;;
3677;SDS011;1855;50.934;6.958;2023-02-11T03:22:03;26.07;;;22.40;;
3677;SDS011;1855;50.934;6.958;2023-02-11T03:24:34;25.75;;;23.15;;
3677;SDS011;1855;50.934;6.958;2023-02-11T03:27:06;25.55;;;22.95;;
3677;SDS011;1855;50.934;6.958;2023-02-11T03:29:38;26.83;;;24.03;;
3677;SDS011;1855;50.934;6.958;2023-02-11T03:32:10;25.27;;;22.60;;
3677;SDS011;1855;50.934;6.958;2023-02-11T03:34:43;27.08;;;23.08;;
3677;SDS011;1855;50.934;6.958;2023-02-11T03:37:16;25.00;;;22.40;;
3677;SDS011;1855;50.934;6.958;2023-02-11T03:39:47;24.10;;;21.42;;
3677;SDS011;1855;50.934;6.958;2023-02-11T03:42:19;24.25;;;21.65;;
3677;SDS011;1855;50.934;6.958;2023-02-11T03:44:51;24.75;;;22.20;;
3677;SDS011;1855;50.934;6.958;2023-02-11T03:47:26;25.08;;;22.52;;
3677;SDS011;1855;50.934;6.958;2023-02-11T03:49:57;27.38;;;22.50;;
3677;SDS011;1855;50.934;6.958;2023-02-11T03:52:26;25.48;;;21.95;;
3677;SDS011;1855;50.934;6.958;2023-02-11T03:54:54;23.30;;;20.80;;
3677;SDS011;1855;50.934;6.958;2023-02-11T03:57:24;25.10;;;22.50;;
3677;SDS011;1855;50.934;6.958;2023-02-11T03:59:52;25.73;;;21.70;;
3677;SDS011;1855;50.934;6.958;2023-02-11T04:02:21;25.42;;;21.85;;
3677;SDS011;1855;50.934;6.958;2023-02-11T04:04:50;24.67;;;21.58;;
3677;SDS011;1855;50.934;6.958;2023-02-11T04:07:18;23.65;;;21.25;;
3677;SDS011;1855;50.934;6.958;2023-02-11T04:09:45;23.45;;;21.05;;
3677;SDS011;1855;50.934;6.958;2023-02-11T04:12:11;23.52;;;21.13;;
3677;SDS011;1855;50.934;6.958;2023-02-11T04:14:38;23.90;;;21.40;;
3677;SDS011;1855;50.934;6.958;2023-02-11T04:17:05;23.75;;;21.15;;
3677;SDS011;1855;50.934;6.958;2023-02-11T04:19:32;23.98;;;21.42;;
3677;SDS011;1855;50.934;6.958;2023-02-11T04:21:58;23.52;;;21.13;;
3677;SDS011;1855;50.934;6.958;2023-02-11T04:24:27;22.95;;;20.55;;
3677;SDS011;1855;50.934;6.958;2023-02-11T04:26:53;23.77;;;21.38;;
3677;SDS011;1855;50.934;6.958;2023-02-11T04:29:20;24.40;;;21.80;;
3677;SDS011;1855;50.934;6.958;2023-02-11T04:31:47;24.30;;;21.90;;
3677;SDS011;1855;50.934;6.958;2023-02-11T04:34:14;24.80;;;21.90;;
3677;SDS011;1855;50.934;6.958;2023-02-11T04:36:42;24.25;;;21.65;;
3677;SDS011;1855;50.934;6.958;2023-02-11T04:39:08;25.38;;;22.77;;
3677;SDS011;1855;50.934;6.958;2023-02-11T04:41:36;22.40;;;20.10;;
3677;SDS011;1855;50.934;6.958;2023-02-11T04:44:03;23.50;;;21.10;;
3677;SDS011;1855;50.934;6.958;2023-02-11T04:46:30;23.30;;;20.80;;
3677;SDS011;1855;50.934;6.958;2023-02-11T04:48:57;23.45;;;20.98;;
3677;SDS011;1855;50.934;6.958;2023-02-11T04:51:24;24.80;;;21.98;;
3677;SDS011;1855;50.934;6.958;2023-02-11T04:53:50;23.10;;;20.60;;
3677;SDS011;1855;50.934;6.958;2023-02-11T04:56:17;24.70;;;20.60;;
3677;SDS011;1855;50.934;6.958;2023-02-11T04:58:45;23.38;;;20.88;;
3677;SDS011;1855;50.934;6.958;2023-02-11T05:01:13;23.85;;;21.30;;
3677;SDS011;1855;50.934;6.958;2023-02-11T05:03:41;23.35;;;20.33;;
3677;SDS011;1855;50.934;6.958;2023-02-11T05:06:08;24.05;;;20.88;;
3677;SDS011;1855;50.934;6.958;2023-02-11T05:08:36;23.77;;;21.25;;
3677;SDS011;1855;50.934;6.958;2023-02-11T05:11:03;22.60;;;20.20;;
3677;SDS011;1855;50.934;6.958;2023-02-11T05:13:30;22.30;;;19.98;;
3677;SDS011;1855;50.934;6.958;2023-02-11T05:15:58;22.93;;;20.63;;
3677;SDS011;1855;50.934;6.958;2023-02-11T05:18:25;21.83;;;19.42;;
3677;SDS011;1855;50.934;6.958;2023-02-11T05:20:53;22.90;;;20.50;;
3677;SDS011;1855;50.934;6.958;2023-02-11T05:23:19;22.95;;;19.67;;
3677;SDS011;1855;50.934;6.958;2023-02-11T05:25:46;23.65;;;20.75;;
3677;SDS011;1855;50.934;6.958;2023-02-11T05:28:13;26.15;;;23.00;;
3677;SDS011;1855;50.934;6.958;2023-02-11T05:30:40;22.88;;;20.48;;
3677;SDS011;1855;50.934;6.958;2023-02-11T05:33:08;22.60;;;20.30;;
3677;SDS011;1855;50.934;6.958;2023-02-11T05:35:35;25.17;;;20.73;;
3677;SDS011;1855;50.934;6.958;2023-02-11T05:38:01;24.10;;;21.50;;
3677;SDS011;1855;50.934;6.958;2023-02-11T05:40:28;21.80;;;19.50;;
3677;SDS011;1855;50.934;6.958;2023-02-11T05:42:55;24.65;;;21.00;;
3677;SDS011;1855;50.934;6.958;2023-02-11T05:45:22;22.95;;;20.65;;
3677;SDS011;1855;50.934;6.958;2023-02-11T05:47:48;23.05;;;20.55;;
3677;SDS011;1855;50.934;6.958;2023-02-11T05:50:17;23.30;;;20.40;;
3677;SDS011;1855;50.934;6.958;2023-02-11T05:52:43;24.65;;;21.15;;
3677;SDS011;1855;50.934;6.958;2023-02-11T05:55:10;25.60;;;22.20;;
3677;SDS011;1855;50.934;6.958;2023-02-11T05:57:37;25.08;;;22.40;;
3677;SDS011;1855;50.934;6.958;2023-02-11T06:00:04;24.95;;;22.25;;
3677;SDS011;1855;50.934;6.958;2023-02-11T06:02:32;24.60;;;22.20;;
3677;SDS011;1855;50.934;6.958;2023-02-11T06:04:58;25.50;;;22.70;;
3677;SDS011;1855;50.934;6.958;2023-02-11T06:07:26;25.83;;;23.02;;
3677;SDS011;1855;50.934;6.958;2023-02-11T06:09:53;26.85;;;23.00;;
3677;SDS011;1855;50.934;6.958;2023-02-11T06:12:20;27.70;;;22.52;;
3677;SDS011;1855;50.934;6.958;2023-02-11T06:14:47;25.73;;;22.70;;
3677;SDS011;1855;50.934;6.958;2023-02-11T06:17:13;26.95;;;23.70;;
3677;SDS011;1855;50.934;6.958;2023-02-11T06:19:40;27.98;;;23.23;;
3677;SDS011;1855;50.934;6.958;2023-02-11T06:22:07;29.08;;;24.38;;
3677;SDS011;1855;50.934;6.958;2023-02-11T06:24:35;31.52;;;22.95;;
3677;SDS011;1855;50.934;6.958;2023-02-11T06:27:02;26.25;;;23.38;;
3677;SDS011;1855;50.934;6.958;2023-02-11T06:29:29;28.73;;;23.83;;
3677;SDS011;1855;50.934;6.958;2023-02-11T06:31:56;26.73;;;22.65;;
3677;SDS011;1855;50.934;6.958;2023-02-11T06:34:22;27.33;;;22.80;;
3677;SDS011;1855;50.934;6.958;2023-02-11T06:36:49;26.65;;;23.95;;
3677;SDS011;1855;50.934;6.958;2023-02-11T06:39:16;27.90;;;24.90;;
3677;SDS011;1855;50.934;6.958;2023-02-11T06:41:44;27.10;;;23.58;;
3677;SDS011;1855;50.934;6.958;2023-02-11T06:44:11;28.67;;;25.57;;
3677;SDS011;1855;50.934;6.958;2023-02-11T06:46:38;29.50;;;24.80;;
3677;SDS011;1855;50.934;6.958;2023-02-11T06:49:04;28.70;;;24.83;;
3677;SDS011;1855;50.934;6.958;2023-02-11T06:51:31;27.25;;;24.20;;
3677;SDS011;1855;50.934;6.958;2023-02-11T06:53:58;28.15;;;25.10;;
3677;SDS011;1855;50.934;6.958;2023-02-11T06:56:25;28.38;;;24.25;;
3677;SDS011;1855;50.934;6.958;2023-02-11T06:58:53;28.35;;;25.35;;
3677;SDS011;1855;50.934;6.958;2023-02-11T07:01:21;27.70;;;24.77;;
3677;SDS011;1855;50.934;6.958;2023-02-11T07:03:49;27.20;;;24.40;;
3677;SDS011;1855;50.934;6.958;2023-02-11T07:06:17;29.38;;;24.98;;
3677;SDS011;1855;50.934;6.958;2023-02-11T07:08:46;29.55;;;23.85;;
3677;SDS011;1855;50.934;6.958;2023-02-11T07:11:14;26.90;;;24.00;;
3677;SDS011;1855;50.934;6.958;2023-02-11T07:13:41;28.05;;;24.48;;
3677;SDS011;1855;50.934;6.958;2023-02-11T07:16:10;28.15;;;25.05;;
3677;SDS011;1855;50.934;6.958;2023-02-11T07:18:39;29.35;;;24.65;;
3677;SDS011;1855;50.934;6.958;2023-02-11T07:21:07;27.10;;;24.17;;
3677;SDS011;1855;50.934;6.958;2023-02-11T07:23:35;27.50;;;24.52;;
3677;SDS011;1855;50.934;6.958;2023-02-11T07:26:02;28.25;;;25.05;;
3677;SDS011;1855;50.934;6.958;2023-02-11T07:28:29;28.80;;;24.45;;
3677;SDS011;1855;50.934;6.958;2023-02-11T07:30:56;27.73;;;24.73;;
3677;SDS011;1855;50.934;6.958;2023-02-11T07:33:24;30.60;;;25.48;;
3677;SDS011;1855;50.934;6.958;2023-02-11T07:35:51;31.23;;;24.77;;
3677;SDS011;1855;50.934;6.958;2023-02-11T07:38:18;32.20;;;25.70;;
3677;SDS011;1855;50.934;6.958;2023-02-11T07:40:44;30.42;;;26.02;;
3677;SDS011;1855;50.934;6.958;2023-02-11T07:43:11;29.57;;;25.87;;
3677;SDS011;1855;50.934;6.958;2023-02-11T07:45:38;29.40;;;25.88;;
3677;SDS011;1855;50.934;6.958;2023-02-11T07:48:05;32.20;;;27.15;;
3677;SDS011;1855;50.934;6.958;2023-02-11T07:50:33;32.13;;;25.60;;
3677;SDS011;1855;50.934;6.958;2023-02-11T07:53:00;30.52;;;26.65;;
3677;SDS011;1855;50.934;6.958;2023-02-11T07:55:27;33.70;;;26.70;;
3677;SDS011;1855;50.934;6.958;2023-02-11T07:57:54;30.67;;;27.30;;
3677;SDS011;1855;50.934;6.958;2023-02-11T08:00:21;28.92;;;25.23;;
3677;SDS011;1855;50.934;6.958;2023-02-11T08:02:48;33.15;;;26.17;;
3677;SDS011;1855;50.934;6.958;2023-02-11T08:05:14;32.30;;;25.73;;
3677;SDS011;1855;50.934;6.958;2023-02-11T08:07:43;31.70;;;26.55;;
3677;SDS011;1855;50.934;6.958;2023-02-11T08:10:09;31.40;;;25.93;;
3677;SDS011;1855;50.934;6.958;2023-02-11T08:12:36;33.90;;;26.60;;
3677;SDS011;1855;50.934;6.958;2023-02-11T08:15:03;33.58;;;26.92;;
3677;SDS011;1855;50.934;6.958;2023-02-11T08:17:30;33.93;;;26.23;;
3677;SDS011;1855;50.934;6.958;2023-02-11T08:19:57;33.95;;;26.65;;
3677;SDS011;1855;50.934;6.958;2023-02-11T08:22:23;31.63;;;26.08;;
3677;SDS011;1855;50.934;6.958;2023-02-11T08:24:51;31.15;;;26.98;;
3677;SDS011;1855;50.934;6.958;2023-02-11T08:27:18;32.15;;;26.77;;
3677;SDS011;1855;50.934;6.958;2023-02-11T08:29:45;36.70;;;27.27;;
3677;SDS011;1855;50.934;6.958;2023-02-11T08:32:11;31.23;;;25.65;;
3677;SDS011;1855;50.934;6.958;2023-02-11T08:34:38;31.42;;;27.08;;
3677;SDS011;1855;50.934;6.958;2023-02-11T08:37:05;31.98;;;27.17;;
3677;SDS011;1855;50.934;6.958;2023-02-11T08:39:33;30.67;;;26.70;;
3677;SDS011;1855;50.934;6.958;2023-02-11T08:42:01;32.67;;;26.73;;
3677;SDS011;1855;50.934;6.958;2023-02-11T08:44:27;31.40;;;26.17;;
3677;SDS011;1855;50.934;6.958;2023-02-11T08:46:54;29.92;;;25.70;;
3677;SDS011;1855;50.934;6.958;2023-02-11T08:49:21;31.67;;;26.40;;
3677;SDS011;1855;50.934;6.958;2023-02-11T08:51:48;28.80;;;25.63;;
3677;SDS011;1855;50.934;6.958;2023-02-11T08:54:15;30.45;;;24.42;;
3677;SDS011;1855;50.934;6.958;2023-02-11T08:56:42;27.70;;;24.70;;
3677;SDS011;1855;50.934;6.958;2023-02-11T08:59:11;30.08;;;25.13;;
3677;SDS011;1855;50.934;6.958;2023-02-11T09:01:39;31.83;;;26.00;;
3677;SDS011;1855;50.934;6.958;2023-02-11T09:04:08;28.77;;;23.67;;
3677;SDS011;1855;50.934;6.958;2023-02-11T09:06:35;32.33;;;25.48;;
3677;SDS011;1855;50.934;6.958;2023-02-11T09:09:02;31.00;;;25.60;;
3677;SDS011;1855;50.934;6.958;2023-02-11T09:11:29;28.33;;;24.83;;
3677;SDS011;1855;50.934;6.958;2023-02-11T09:13:57;32.35;;;25.50;;
3677;SDS011;1855;50.934;6.958;2023-02-11T09:16:27;29.52;;;25.17;;
3677;SDS011;1855;50.934;6.958;2023-02-11T09:18:55;29.38;;;25.15;;
3677;SDS011;1855;50.934;6.958;2023-02-11T09:21:22;29.13;;;24.77;;
3677;SDS011;1855;50.934;6.958;2023-02-11T09:23:49;30.65;;;25.13;;
3677;SDS011;1855;50.934;6.958;2023-02-11T09:26:16;29.13;;;24.20;;
3677;SDS011;1855;50.934;6.958;2023-02-11T09:28:45;27.90;;;23.92;;
3677;SDS011;1855;50.934;6.958;2023-02-11T09:31:13;30.67;;;24.92;;
3677;SDS011;1855;50.934;6.958;2023-02-11T09:33:43;30.08;;;24.02;;
3677;SDS011;1855;50.934;6.958;2023-02-11T09:36:13;28.85;;;24.38;;
3677;SDS011;1855;50.934;6.958;2023-02-11T09:38:41;27.10;;;23.00;;
3677;SDS011;1855;50.934;6.958;2023-02-11T09:41:16;29.73;;;23.45;;
3677;SDS011;1855;50.934;6.958;2023-02-11T09:43:54;27.48;;;24.48;;
3677;SDS011;1855;50.934;6.958;2023-02-11T09:46:23;26.55;;;23.23;;
3677;SDS011;1855;50.934;6.958;2023-02-11T09:48:53;28.38;;;22.95;;
3677;SDS011;1855;50.934;6.958;2023-02-11T09:51:23;26.63;;;23.48;;
3677;SDS011;1855;50.934;6.958;2023-02-11T09:54:00;28.40;;;23.70;;
3677;SDS011;1855;50.934;6.958;2023-02-11T09:56:31;27.00;;;23.85;;
3677;SDS011;1855;50.934;6.958;2023-02-11T09:58:58;25.38;;;22.67;;
3677;SDS011;1855;50.934;6.958;2023-02-11T10:01:26;24.88;;;22.10;;
3677;SDS011;1855;50.934;6.958;2023-02-11T10:04:03;27.45;;;23.05;;
3677;SDS011;1855;50.934;6.958;2023-02-11T10:06:40;25.70;;;23.00;;
3677;SDS011;1855;50.934;6.958;2023-02-11T10:11:57;25.60;;;21.40;;
3677;SDS011;1855;50.934;6.958;2023-02-11T10:14:44;24.33;;;21.92;;
3677;SDS011;1855;50.934;6.958;2023-02-11T10:17:27;23.88;;;21.38;;
3677;SDS011;1855;50.934;6.958;2023-02-11T10:20:07;25.67;;;22.50;;
3677;SDS011;1855;50.934;6.958;2023-02-11T10:22:42;22.90;;;20.40;;
3677;SDS011;1855;50.934;6.958;2023-02-11T10:25:16;23.65;;;21.05;;
3677;SDS011;1855;50.934;6.958;2023-02-11T10:27:46;26.27;;;21.85;;
3677;SDS011;1855;50.934;6.958;2023-02-11T10:30:17;24.13;;;20.83;;
3677;SDS011;1855;50.934;6.958;2023-02-11T10:32:50;24.58;;;20.95;;
3677;SDS011;1855;50.934;6.958;2023-02-11T10:35:21;27.15;;;22.73;;
3677;SDS011;1855;50.934;6.958;2023-02-11T10:37:49;25.52;;;22.30;;
3677;SDS011;1855;50.934;6.958;2023-02-11T10:40:17;26.67;;;23.23;;
3677;SDS011;1855;50.934;6.958;2023-02-11T10:42:46;25.33;;;22.17;;
3677;SDS011;1855;50.934;6.958;2023-02-11T10:45:16;27.85;;;23.05;;
3677;SDS011;1855;50.934;6.958;2023-02-11T10:47:48;24.00;;;20.75;;
3677;SDS011;1855;50.934;6.958;2023-02-11T10:50:21;24.85;;;21.25;;
3677;SDS011;1855;50.934;6.958;2023-02-11T10:52:49;25.40;;;21.15;;
3677;SDS011;1855;50.934;6.958;2023-02-11T10:55:16;24.48;;;21.88;;
3677;SDS011;1855;50.934;6.958;2023-02-11T10:57:50;24.58;;;21.95;;
3677;SDS011;1855;50.934;6.958;2023-02-11T11:00:30;24.70;;;22.00;;
3677;SDS011;1855;50.934;6.958;2023-02-11T11:03:00;24.80;;;21.48;;
3677;SDS011;1855;50.934;6.958;2023-02-11T11:05:31;24.73;;;21.67;;
3677;SDS011;1855;50.934;6.958;2023-02-11T11:08:01;24.30;;;21.70;;
3677;SDS011;1855;50.934;6.958;2023-02-11T11:10:33;23.90;;;20.85;;
3677;SDS011;1855;50.934;6.958;2023-02-11T11:13:12;25.08;;;22.42;;
3677;SDS011;1855;50.934;6.958;2023-02-11T11:15:57;22.67;;;20.25;;
3677;SDS011;1855;50.934;6.958;2023-02-11T11:18:43;23.83;;;20.90;;
3677;SDS011;1855;50.934;6.958;2023-02-11T11:21:13;22.92;;;20.52;;
3677;SDS011;1855;50.934;6.958;2023-02-11T11:23:51;24.38;;;20.88;;
3677;SDS011;1855;50.934;6.958;2023-02-11T11:26:20;23.52;;;21.13;;
3677;SDS011;1855;50.934;6.958;2023-02-11T11:28:50;23.60;;;21.10;;
3677;SDS011;1855;50.934;6.958;2023-02-11T11:31:23;23.85;;;21.25;;
3677;SDS011;1855;50.934;6.958;2023-02-11T11:33:53;25.67;;;21.77;;
3677;SDS011;1855;50.934;6.958;2023-02-11T11:36:29;24.27;;;21.63;;
3677;SDS011;1855;50.934;6.958;2023-02-11T11:38:59;23.40;;;20.90;;
3677;SDS011;1855;50.934;6.958;2023-02-11T11:41:29;25.00;;;21.77;;
3677;SDS011;1855;50.934;6.958;2023-02-11T11:43:58;23.60;;;21.10;;
3677;SDS011;1855;50.934;6.958;2023-02-11T11:46:29;23.77;;;20.70;;
3677;SDS011;1855;50.934;6.958;2023-02-11T11:49:00;24.58;;;21.98;;
3677;SDS011;1855;50.934;6.958;2023-02-11T11:51:34;25.58;;;22.88;;
3677;SDS011;1855;50.934;6.958;2023-02-11T11:54:05;23.77;;;20.88;;
3677;SDS011;1855;50.934;6.958;2023-02-11T11:56:37;27.23;;;23.40;;
3677;SDS011;1855;50.934;6.958;2023-02-11T11:59:09;25.45;;;22.48;;
3677;SDS011;1855;50.934;6.958;2023-02-11T12:01:42;27.50;;;22.83;;
3677;SDS011;1855;50.934;6.958;2023-02-11T12:04:34;26.58;;;23.65;;
3677;SDS011;1855;50.934;6.958;2023-02-11T12:07:18;25.83;;;22.17;;
3677;SDS011;1855;50.934;6.958;2023-02-11T12:09:56;25.83;;;22.70;;
3677;SDS011;1855;50.934;6.958;2023-02-11T12:13:01;25.02;;;21.88;;
3677;SDS011;1855;50.934;6.958;2023-02-11T12:15:47;26.75;;;23.00;;
3677;SDS011;1855;50.934;6.958;2023-02-11T12:18:29;25.88;;;23.20;;
3677;SDS011;1855;50.934;6.958;2023-02-11T12:24:05;27.08;;;22.40;;
3677;SDS011;1855;50.934;6.958;2023-02-11T12:26:42;25.73;;;22.48;;
3677;SDS011;1855;50.934;6.958;2023-02-11T12:29:15;26.27;;;23.17;;
3677;SDS011;1855;50.934;6.958;2023-02-11T12:31:52;26.03;;;23.23;;
3677;SDS011;1855;50.934;6.958;2023-02-11T12:34:33;25.10;;;22.40;;
3677;SDS011;1855;50.934;6.958;2023-02-11T12:37:22;26.48;;;23.10;;
3677;SDS011;1855;50.934;6.958;2023-02-11T12:40:10;27.48;;;24.60;;
3677;SDS011;1855;50.934;6.958;2023-02-11T12:42:45;25.83;;;23.07;;
3677;SDS011;1855;50.934;6.958;2023-02-11T12:45:41;26.13;;;23.33;;
3677;SDS011;1855;50.934;6.958;2023-02-11T12:48:25;28.10;;;24.60;;
3677;SDS011;1855;50.934;6.958;2023-02-11T12:51:18;27.35;;;24.33;;
3677;SDS011;1855;50.934;6.958;2023-02-11T12:54:02;28.02;;;23.20;;
3677;SDS011;1855;50.934;6.958;2023-02-11T12:56:53;27.95;;;24.75;;
3677;SDS011;1855;50.934;6.958;2023-02-11T12:59:33;27.52;;;24.52;;
3677;SDS011;1855;50.934;6.958;2023-02-11T13:02:11;27.48;;;24.27;;
3677;SDS011;1855;50.934;6.958;2023-02-11T13:04:45;29.23;;;24.95;;
3677;SDS011;1855;50.934;6.958;2023-02-11T13:07:18;29.20;;;24.92;;
3677;SDS011;1855;50.934;6.958;2023-02-11T13:09:50;29.88;;;25.35;;
3677;SDS011;1855;50.934;6.958;2023-02-11T13:12:24;30.77;;;24.85;;
3677;SDS011;1855;50.934;6.958;2023-02-11T13:15:12;29.92;;;25.20;;
3677;SDS011;1855;50.934;6.958;2023-02-11T13:17:40;30.60;;;26.20;;
3677;SDS011;1855;50.934;6.958;2023-02-11T13:20:14;30.30;;;26.70;;
3677;SDS011;1855;50.934;6.958;2023-02-11T13:22:51;30.95;;;26.05;;
3677;SDS011;1855;50.934;6.958;2023-02-11T13:25:26;29.45;;;26.30;;
3677;SDS011;1855;50.934;6.958;2023-02-11T13:28:02;29.42;;;26.08;;
3677;SDS011;1855;50.934;6.958;2023-02-11T13:30:39;30.43;;;25.37;;
3677;SDS011;1855;50.934;6.958;2023-02-11T13:33:18;29.02;;;25.90;;
3677;SDS011;1855;50.934;6.958;2023-02-11T13:36:14;32.27;;;27.67;;
3677;SDS011;1855;50.934;6.958;2023-02-11T13:41:44;30.45;;;27.13;;
3677;SDS011;1855;50.934;6.958;2023-02-11T13:44:19;30.25;;;26.50;;
3677;SDS011;1855;50.934;6.958;2023-02-11T13:46:51;30.17;;;26.58;;
3677;SDS011;1855;50.934;6.958;2023-02-11T13:49:23;31.02;;;26.35;;
3677;SDS011;1855;50.934;6.958;2023-02-11T13:51:52;29.70;;;26.48;;
3677;SDS011;1855;50.934;6.958;2023-02-11T13:54:28;30.55;;;26.75;;
3677;SDS011;1855;50.934;6.958;2023-02-11T13:59:49;29.60;;;26.27;;
3677;SDS011;1855;50.934;6.958;2023-02-11T14:02:24;30.17;;;26.88;;
3677;SDS011;1855;50.934;6.958;2023-02-11T14:05:24;32.50;;;27.20;;
3677;SDS011;1855;50.934;6.958;2023-02-11T14:08:17;32.22;;;27.30;;
3677;SDS011;1855;50.934;6.958;2023-02-11T14:11:04;31.58;;;26.02;;
3677;SDS011;1855;50.934;6.958;2023-02-11T14:16:29;31.50;;;27.20;;
3677;SDS011;1855;50.934;6.958;2023-02-11T14:18:57;33.55;;;27.02;;
3677;SDS011;1855;50.934;6.958;2023-02-11T14:21:29;30.83;;;25.90;;
3677;SDS011;1855;50.934;6.958;2023-02-11T14:27:03;32.03;;;27.00;;
3677;SDS011;1855;50.934;6.958;2023-02-11T14:29:35;33.00;;;26.90;;
3677;SDS011;1855;50.934;6.958;2023-02-11T14:32:09;30.27;;;25.52;;
3677;SDS011;1855;50.934;6.958;2023-02-11T14:34:46;30.88;;;26.50;;
3677;SDS011;1855;50.934;6.958;2023-02-11T14:37:25;31.85;;;26.90;;
3677;SDS011;1855;50.934;6.958;2023-02-11T14:40:02;32.40;;;28.13;;
3677;SDS011;1855;50.934;6.958;2023-02-11T14:42:35;30.27;;;26.55;;
3677;SDS011;1855;50.934;6.958;2023-02-11T14:45:04;30.20;;;26.70;;
3677;SDS011;1855;50.934;6.958;2023-02-11T14:47:39;31.02;;;27.60;;
3677;SDS011;1855;50.934;6.958;2023-02-11T14:50:11;30.98;;;26.00;;
3677;SDS011;1855;50.934;6.958;2023-02-11T14:52:42;31.13;;;26.17;;
3677;SDS011;1855;50.934;6.958;2023-02-11T14:55:13;31.38;;;27.02;;
3677;SDS011;1855;50.934;6.958;2023-02-11T14:57:46;31.30;;;25.90;;
3677;SDS011;1855;50.934;6.958;2023-02-11T15:00:15;31.50;;;26.05;;
3677;SDS011;1855;50.934;6.958;2023-02-11T15:02:46;32.20;;;25.88;;
3677;SDS011;1855;50.934;6.958;2023-02-11T15:05:14;31.63;;;27.00;;
3677;SDS011;1855;50.934;6.958;2023-02-11T15:07:44;30.33;;;25.48;;
3677;SDS011;1855;50.934;6.958;2023-02-11T15:10:18;30.73;;;25.98;;
3677;SDS011;1855;50.934;6.958;2023-02-11T15:12:50;30.52;;;26.40;;
3677;SDS011;1855;50.934;6.958;2023-02-11T15:15:17;29.95;;;26.10;;
3677;SDS011;1855;50.934;6.958;2023-02-11T15:17:45;30.73;;;27.45;;
3677;SDS011;1855;50.934;6.958;2023-02-11T15:20:15;33.17;;;26.10;;
3677;SDS011;1855;50.934;6.958;2023-02-11T15:22:45;29.45;;;25.92;;
3677;SDS011;1855;50.934;6.958;2023-02-11T15:25:15;31.25;;;26.63;;
3677;SDS011;1855;50.934;6.958;2023-02-11T15:27:44;31.52;;;27.40;;
3677;SDS011;1855;50.934;6.958;2023-02-11T15:32:59;29.83;;;26.10;;
3677;SDS011;1855;50.934;6.958;2023-02-11T15:35:29;30.85;;;26.63;;